createdAt,value
2023-05-18T00:00:06.730Z,7.70
2023-05-18T00:02:34.311Z,7.70
2023-05-18T00:05:02.405Z,7.70
2023-05-18T00:07:34.240Z,7.70
2023-05-18T00:10:02.013Z,7.70
2023-05-18T00:12:29.360Z,7.70
2023-05-18T00:14:56.574Z,7.70
2023-05-18T00:17:23.742Z,7.60
2023-05-18T00:19:50.876Z,7.60
2023-05-18T00:22:20.786Z,7.60
2023-05-18T00:24:48.634Z,7.60
2023-05-18T00:27:15.737Z,7.60
2023-05-18T00:29:42.667Z,7.60
2023-05-18T00:32:09.648Z,7.50
2023-05-18T00:34:36.850Z,7.50
2023-05-18T00:37:03.864Z,7.50
2023-05-18T00:39:30.974Z,7.50
2023-05-18T00:41:57.919Z,7.50
2023-05-18T00:44:24.972Z,7.50
2023-05-18T00:46:52.165Z,7.50
2023-05-18T00:49:19.665Z,7.50
2023-05-18T00:51:47.360Z,7.40
2023-05-18T00:54:15.622Z,7.40
2023-05-18T00:56:46.314Z,7.50
2023-05-18T00:59:13.554Z,7.50
2023-05-18T01:01:47.041Z,7.50
2023-05-18T01:04:15.922Z,7.50
2023-05-18T01:06:42.988Z,7.50
2023-05-18T01:09:12.291Z,7.60
2023-05-18T01:12:05.905Z,7.60
2023-05-18T01:15:01.976Z,7.60
2023-05-18T01:17:51.103Z,7.60
2023-05-18T01:20:46.429Z,7.70
2023-05-18T01:23:45.033Z,7.70
2023-05-18T01:26:15.508Z,7.60
2023-05-18T01:28:46.431Z,7.70
2023-05-18T01:31:16.251Z,7.70
2023-05-18T01:33:44.673Z,7.60
2023-05-18T01:36:11.854Z,7.60
2023-05-18T01:38:41.656Z,7.60
2023-05-18T01:41:22.507Z,7.60
2023-05-18T01:44:19.222Z,7.60
2023-05-18T01:47:04.146Z,7.60
2023-05-18T01:49:56.915Z,7.50
2023-05-18T01:52:32.748Z,7.50
2023-05-18T01:55:03.646Z,7.50
2023-05-18T01:57:33.076Z,7.50
2023-05-18T02:00:00.815Z,7.40
2023-05-18T02:02:28.800Z,7.40
2023-05-18T02:04:56.333Z,7.30
2023-05-18T02:07:23.284Z,7.20
2023-05-18T02:09:50.304Z,7.20
2023-05-18T02:12:17.296Z,7.10
2023-05-18T02:14:44.292Z,7.10
2023-05-18T02:17:13.772Z,7.10
2023-05-18T02:19:41.451Z,7.10
2023-05-18T02:22:08.445Z,7.10
2023-05-18T02:24:35.617Z,7.00
2023-05-18T02:27:02.587Z,7.00
2023-05-18T02:29:29.575Z,7.00
2023-05-18T02:31:56.582Z,7.00
2023-05-18T02:34:24.909Z,7.00
2023-05-18T02:36:51.969Z,7.00
2023-05-18T02:39:19.008Z,7.00
2023-05-18T02:41:46.326Z,7.00
2023-05-18T02:44:13.350Z,7.00
2023-05-18T02:46:40.583Z,7.00
2023-05-18T02:49:07.543Z,7.00
2023-05-18T02:51:34.525Z,7.00
2023-05-18T02:54:01.830Z,7.00
2023-05-18T02:56:29.080Z,6.90
2023-05-18T02:58:58.488Z,6.90
2023-05-18T03:01:27.118Z,6.90
2023-05-18T03:03:54.747Z,6.90
2023-05-18T03:06:26.936Z,6.90
2023-05-18T03:08:57.141Z,6.90
2023-05-18T03:11:24.551Z,7.00
2023-05-18T03:13:52.017Z,7.00
2023-05-18T03:16:19.026Z,7.00
2023-05-18T03:18:46.234Z,7.00
2023-05-18T03:21:13.874Z,7.10
2023-05-18T03:23:41.232Z,7.10
2023-05-18T03:26:11.740Z,7.10
2023-05-18T03:28:39.204Z,7.20
2023-05-18T03:31:06.372Z,7.20
2023-05-18T03:33:33.916Z,7.20
2023-05-18T03:36:04.859Z,7.30
2023-05-18T03:38:31.936Z,7.30
2023-05-18T03:40:59.114Z,7.40
2023-05-18T03:43:26.216Z,7.40
2023-05-18T03:45:53.774Z,7.40
2023-05-18T03:48:21.841Z,7.40
2023-05-18T03:50:49.035Z,7.40
2023-05-18T03:53:19.396Z,7.40
2023-05-18T03:55:46.695Z,7.50
2023-05-18T03:58:13.785Z,7.50
2023-05-18T04:00:40.891Z,7.50
2023-05-18T04:03:07.896Z,7.50
2023-05-18T04:05:34.889Z,7.60
2023-05-18T04:08:02.169Z,7.60
2023-05-18T04:10:29.121Z,7.60
2023-05-18T04:12:56.193Z,7.60
2023-05-18T04:15:23.209Z,7.70
2023-05-18T04:17:51.813Z,7.80
2023-05-18T04:20:19.416Z,7.80
2023-05-18T04:22:48.545Z,7.90
2023-05-18T04:25:16.418Z,7.90
2023-05-18T04:27:50.479Z,8.00
2023-05-18T04:30:19.083Z,8.00
2023-05-18T04:32:46.648Z,8.10
2023-05-18T04:35:13.880Z,8.20
2023-05-18T04:37:41.109Z,8.20
2023-05-18T04:40:12.947Z,8.30
2023-05-18T04:42:47.928Z,8.40
2023-05-18T04:45:17.226Z,8.40
2023-05-18T04:47:48.549Z,8.50
2023-05-18T04:50:19.159Z,8.50
2023-05-18T04:52:50.267Z,8.60
2023-05-18T04:55:20.084Z,8.70
2023-05-18T04:57:47.779Z,8.80
2023-05-18T05:00:15.555Z,8.80
2023-05-18T05:02:42.518Z,8.90
2023-05-18T05:05:09.751Z,9.00
2023-05-18T05:07:36.701Z,8.90
2023-05-18T05:10:04.338Z,9.00
2023-05-18T05:12:31.339Z,9.00
2023-05-18T05:14:58.438Z,9.10
2023-05-18T05:17:25.661Z,9.20
2023-05-18T05:19:52.589Z,9.30
2023-05-18T05:22:20.071Z,9.40
2023-05-18T05:24:47.238Z,9.50
2023-05-18T05:27:14.163Z,9.60
2023-05-18T05:29:41.179Z,9.70
2023-05-18T05:32:08.338Z,9.70
2023-05-18T05:34:35.254Z,9.80
2023-05-18T05:37:02.229Z,9.90
2023-05-18T05:39:29.176Z,10.00
2023-05-18T05:41:56.389Z,10.10
2023-05-18T05:44:23.516Z,10.20
2023-05-18T05:46:50.683Z,10.20
2023-05-18T05:49:17.657Z,10.20
2023-05-18T05:51:44.684Z,10.30
2023-05-18T05:54:11.617Z,10.40
2023-05-18T05:56:38.568Z,10.50
2023-05-18T05:59:06.075Z,10.50
2023-05-18T06:01:33.018Z,10.50
2023-05-18T06:04:00.004Z,10.60
2023-05-18T06:06:27.541Z,10.60
2023-05-18T06:08:54.454Z,10.70
2023-05-18T06:11:21.373Z,10.70
2023-05-18T06:13:48.361Z,10.80
2023-05-18T06:16:15.409Z,10.80
2023-05-18T06:18:43.237Z,10.90
2023-05-18T06:21:10.220Z,11.00
2023-05-18T06:23:38.424Z,11.10
2023-05-18T06:26:07.411Z,11.20
2023-05-18T06:28:34.419Z,11.30
2023-05-18T06:31:01.628Z,11.30
2023-05-18T06:33:28.697Z,11.30
2023-05-18T06:35:55.792Z,11.40
2023-05-18T06:38:22.709Z,11.50
2023-05-18T06:40:50.260Z,11.70
2023-05-18T06:45:47.026Z,11.70
2023-05-18T06:48:14.017Z,11.70
2023-05-18T06:50:41.013Z,11.90
2023-05-18T06:53:07.941Z,12.10
2023-05-18T06:55:34.874Z,12.80
2023-05-18T06:58:02.847Z,13.60
2023-05-18T07:00:29.765Z,14.20
2023-05-18T07:02:56.723Z,14.70
2023-05-18T07:05:24.882Z,15.30
2023-05-18T07:07:51.972Z,15.70
2023-05-18T07:10:18.939Z,16.50
2023-05-18T07:12:46.193Z,16.50
2023-05-18T07:15:13.103Z,17.10
2023-05-18T07:17:40.236Z,17.20
2023-05-18T07:20:08.332Z,17.00
2023-05-18T07:22:35.660Z,17.10
2023-05-18T07:25:02.618Z,17.60
2023-05-18T07:27:29.725Z,17.20
2023-05-18T07:29:56.702Z,18.30
2023-05-18T07:32:23.678Z,18.30
2023-05-18T07:41:36.340Z,18.30
2023-05-18T07:44:03.297Z,18.10
2023-05-18T07:46:30.351Z,17.70
2023-05-18T07:52:44.813Z,19.20
2023-05-18T07:55:11.804Z,19.10
2023-05-18T07:57:39.897Z,19.20
2023-05-18T08:00:09.193Z,20.00
2023-05-18T08:02:36.416Z,19.90
2023-05-18T08:05:04.123Z,20.20
2023-05-18T08:07:33.007Z,20.60
2023-05-18T08:09:59.966Z,21.10
2023-05-18T08:12:27.074Z,21.50
2023-05-18T08:14:54.083Z,22.60
2023-05-18T08:17:21.216Z,22.40
2023-05-18T08:19:48.616Z,22.10
2023-05-18T08:22:15.934Z,21.80
2023-05-18T08:24:42.946Z,22.00
2023-05-18T08:27:11.437Z,23.30
2023-05-18T08:29:38.540Z,22.20
2023-05-18T08:32:08.867Z,22.90
2023-05-18T08:34:36.044Z,23.80
2023-05-18T08:37:03.195Z,24.20
2023-05-18T08:39:32.128Z,23.30
2023-05-18T08:42:03.655Z,22.90
2023-05-18T08:44:46.156Z,22.50
2023-05-18T08:47:16.391Z,22.20
2023-05-18T08:49:43.494Z,23.10
2023-05-18T08:52:17.945Z,23.10
2023-05-18T08:54:45.959Z,22.90
2023-05-18T08:57:13.477Z,22.30
2023-05-18T08:59:42.434Z,22.00
2023-05-18T09:02:10.719Z,22.00
2023-05-18T09:04:38.776Z,22.10
2023-05-18T09:07:07.397Z,23.60
2023-05-18T09:09:36.170Z,23.60
2023-05-18T09:12:04.031Z,23.90
2023-05-18T09:14:32.536Z,23.90
2023-05-18T09:16:59.705Z,24.00
2023-05-18T09:19:26.902Z,23.90
2023-05-18T09:21:53.992Z,23.50
2023-05-18T09:24:24.380Z,24.40
2023-05-18T09:26:51.730Z,24.20
2023-05-18T09:29:24.371Z,24.10
2023-05-18T09:31:52.105Z,24.60
2023-05-18T09:34:19.522Z,25.80
2023-05-18T09:36:57.172Z,26.50
2023-05-18T09:39:24.242Z,25.90
2023-05-18T09:41:59.056Z,26.10
2023-05-18T09:44:34.668Z,25.30
2023-05-18T09:47:02.367Z,24.50
2023-05-18T09:49:31.164Z,24.30
2023-05-18T09:52:00.210Z,24.20
2023-05-18T09:54:27.495Z,23.40
2023-05-18T09:57:09.543Z,23.20
2023-05-18T09:59:37.699Z,23.30
2023-05-18T10:02:06.158Z,24.20
2023-05-18T10:04:41.864Z,23.60
2023-05-18T10:07:16.869Z,23.00
2023-05-18T10:09:47.226Z,23.30
2023-05-18T10:12:16.342Z,22.80
2023-05-18T10:14:46.731Z,22.60
2023-05-18T10:17:17.059Z,22.60
2023-05-18T10:19:45.360Z,22.40
2023-05-18T10:22:16.392Z,21.90
2023-05-18T10:24:45.361Z,21.40
2023-05-18T10:27:17.816Z,21.90
2023-05-18T10:29:46.519Z,21.60
2023-05-18T10:32:15.463Z,21.50
2023-05-18T10:34:44.302Z,21.20
2023-05-18T10:37:12.931Z,21.20
2023-05-18T10:39:42.469Z,21.20
2023-05-18T10:42:10.615Z,21.10
2023-05-18T10:44:40.058Z,21.20
2023-05-18T10:47:08.984Z,20.60
2023-05-18T10:49:36.831Z,19.90
2023-05-18T10:52:04.258Z,19.80
2023-05-18T10:54:32.183Z,19.70
2023-05-18T10:57:00.132Z,19.90
2023-05-18T10:59:27.862Z,20.30
2023-05-18T11:01:57.589Z,20.10
2023-05-18T11:04:27.520Z,19.60
2023-05-18T11:07:04.408Z,19.60
2023-05-18T11:09:33.752Z,19.50
2023-05-18T11:12:01.077Z,19.30
2023-05-18T11:14:32.652Z,19.20
2023-05-18T11:17:26.215Z,19.20
2023-05-18T11:20:08.820Z,19.20
2023-05-18T11:22:57.445Z,19.30
2023-05-18T11:25:34.193Z,19.50
2023-05-18T11:28:13.834Z,19.60
2023-05-18T11:30:40.794Z,19.70
2023-05-18T11:33:16.045Z,19.90
2023-05-18T11:35:55.064Z,20.10
2023-05-18T11:38:23.159Z,19.90
2023-05-18T11:40:51.254Z,19.70
2023-05-18T11:43:25.340Z,19.60
2023-05-18T11:45:53.322Z,19.80
2023-05-18T11:48:32.893Z,19.80
2023-05-18T11:51:00.160Z,20.20
2023-05-18T11:53:27.508Z,20.10
2023-05-18T11:55:57.542Z,20.30
2023-05-18T11:58:25.363Z,20.50
2023-05-18T12:00:52.989Z,20.50
2023-05-18T12:03:25.962Z,20.20
2023-05-18T12:05:53.942Z,20.00
2023-05-18T12:08:21.855Z,19.60
2023-05-18T12:10:52.355Z,19.60
2023-05-18T12:13:19.686Z,19.40
2023-05-18T12:15:46.928Z,19.60
2023-05-18T12:18:14.479Z,19.40
2023-05-18T12:20:41.535Z,19.60
2023-05-18T12:23:08.583Z,19.90
2023-05-18T12:25:36.678Z,19.90
2023-05-18T12:28:05.037Z,19.70
2023-05-18T12:30:35.971Z,19.60
2023-05-18T12:33:04.432Z,19.40
2023-05-18T12:35:32.195Z,19.30
2023-05-18T12:38:01.524Z,19.10
2023-05-18T12:40:44.577Z,18.80
2023-05-18T12:43:13.493Z,18.90
2023-05-18T12:45:41.203Z,19.10
2023-05-18T12:48:09.964Z,19.10
2023-05-18T12:50:38.867Z,19.00
2023-05-18T12:53:06.056Z,18.90
2023-05-18T12:55:33.702Z,19.10
2023-05-18T12:58:03.479Z,18.90
2023-05-18T13:00:34.329Z,18.80
2023-05-18T13:03:17.998Z,18.60
2023-05-18T13:05:46.555Z,18.30
2023-05-18T13:08:22.134Z,18.00
2023-05-18T13:11:01.197Z,18.20
2023-05-18T13:13:37.936Z,18.20
2023-05-18T13:16:05.214Z,17.80
2023-05-18T13:18:32.185Z,17.60
2023-05-18T13:20:59.149Z,17.40
2023-05-18T13:23:30.140Z,17.30
2023-05-18T13:25:58.916Z,17.10
2023-05-18T13:28:26.658Z,16.90
2023-05-18T13:30:53.693Z,17.00
2023-05-18T13:33:21.597Z,17.10
2023-05-18T13:35:49.929Z,17.10
2023-05-18T13:38:17.147Z,17.10
2023-05-18T13:40:44.193Z,16.80
2023-05-18T13:43:13.515Z,16.90
2023-05-18T13:45:43.592Z,16.50
2023-05-18T13:48:11.449Z,16.40
2023-05-18T13:50:39.708Z,16.30
2023-05-18T13:53:07.094Z,16.10
2023-05-18T13:55:34.620Z,16.20
2023-05-18T13:58:01.555Z,16.20
2023-05-18T14:00:28.743Z,16.20
2023-05-18T14:02:56.887Z,16.20
2023-05-18T14:05:24.371Z,15.90
2023-05-18T14:07:54.258Z,15.70
2023-05-18T14:10:21.403Z,15.90
2023-05-18T14:12:48.570Z,15.90
2023-05-18T14:15:15.574Z,16.00
2023-05-18T14:17:43.722Z,15.90
2023-05-18T14:20:12.136Z,15.60
2023-05-18T14:22:39.473Z,15.60
2023-05-18T14:25:06.659Z,15.60
2023-05-18T14:27:33.731Z,15.70
2023-05-18T14:30:01.434Z,15.60
2023-05-18T14:32:28.579Z,15.50
2023-05-18T14:34:58.111Z,15.40
2023-05-18T14:37:25.927Z,15.50
2023-05-18T14:39:52.995Z,15.50
2023-05-18T14:42:20.043Z,15.50
2023-05-18T14:44:47.245Z,15.20
2023-05-18T14:47:14.409Z,15.10
2023-05-18T14:49:41.399Z,15.00
2023-05-18T14:52:08.337Z,14.90
2023-05-18T14:54:35.537Z,14.90
2023-05-18T14:57:02.523Z,14.90
2023-05-18T14:59:29.464Z,14.90
2023-05-18T15:01:56.487Z,14.80
2023-05-18T15:04:23.743Z,14.70
2023-05-18T15:06:50.879Z,14.70
2023-05-18T15:09:17.829Z,14.50
2023-05-18T15:11:44.848Z,14.50
2023-05-18T15:14:11.849Z,14.40
2023-05-18T15:16:39.011Z,14.30
2023-05-18T15:19:06.345Z,14.30
2023-05-18T15:21:33.430Z,14.20
2023-05-18T15:24:02.715Z,14.10
2023-05-18T15:26:29.802Z,14.10
2023-05-18T15:28:56.842Z,14.10
2023-05-18T15:31:23.773Z,14.10
2023-05-18T15:33:50.700Z,13.90
2023-05-18T15:36:17.682Z,14.00
2023-05-18T15:38:44.847Z,14.00
2023-05-18T15:41:11.831Z,13.80
2023-05-18T15:43:39.462Z,13.90
2023-05-18T15:46:06.544Z,13.90
2023-05-18T15:48:33.647Z,13.90
2023-05-18T15:51:00.714Z,13.80
2023-05-18T15:53:27.748Z,13.80
2023-05-18T15:55:58.752Z,13.70
2023-05-18T15:58:27.751Z,13.60
2023-05-18T16:00:54.984Z,13.70
2023-05-18T16:03:22.211Z,13.70
2023-05-18T16:05:49.338Z,13.70
2023-05-18T16:08:16.339Z,13.50
2023-05-18T16:10:43.272Z,13.50
2023-05-18T16:13:10.235Z,13.40
2023-05-18T16:15:37.272Z,13.40
2023-05-18T16:18:04.589Z,13.30
2023-05-18T16:20:31.917Z,13.30
2023-05-18T16:22:59.682Z,13.30
2023-05-18T16:25:26.775Z,13.10
2023-05-18T16:27:53.715Z,13.00
2023-05-18T16:30:20.899Z,13.10
2023-05-18T16:32:48.079Z,13.20
2023-05-18T16:35:15.172Z,13.20
2023-05-18T16:37:42.143Z,13.20
2023-05-18T16:40:09.479Z,13.10
2023-05-18T16:42:37.024Z,13.00
2023-05-18T16:45:04.252Z,13.00
2023-05-18T16:47:34.172Z,13.00
2023-05-18T16:50:01.383Z,13.00
2023-05-18T16:52:29.952Z,13.10
2023-05-18T16:57:28.027Z,12.80
2023-05-18T16:59:54.940Z,12.80
2023-05-18T17:02:24.386Z,12.70
2023-05-18T17:04:51.651Z,12.80
2023-05-18T17:07:20.190Z,12.80
2023-05-18T17:09:50.424Z,12.60
2023-05-18T17:12:17.719Z,12.50
2023-05-18T17:14:48.177Z,12.50
2023-05-18T17:17:16.421Z,12.50
2023-05-18T17:19:43.500Z,12.30
2023-05-18T17:22:13.934Z,12.30
2023-05-18T17:24:41.774Z,12.30
2023-05-18T17:27:09.270Z,12.20
2023-05-18T17:29:36.342Z,12.20
2023-05-18T17:32:03.758Z,12.10
2023-05-18T17:34:31.386Z,12.10
2023-05-18T17:36:58.832Z,12.10
2023-05-18T17:39:26.335Z,12.10
2023-05-18T17:41:54.472Z,12.00
2023-05-18T17:44:21.577Z,12.00
2023-05-18T17:46:48.973Z,11.90
2023-05-18T17:49:16.283Z,12.00
2023-05-18T17:51:43.564Z,11.90
2023-05-18T17:54:10.893Z,11.90
2023-05-18T17:56:38.634Z,11.90
2023-05-18T17:59:06.275Z,11.80
2023-05-18T18:01:34.146Z,11.80
2023-05-18T18:04:01.653Z,11.80
2023-05-18T18:06:28.686Z,11.70
2023-05-18T18:08:58.286Z,11.60
2023-05-18T18:11:26.332Z,11.60
2023-05-18T18:13:53.422Z,11.60
2023-05-18T18:16:21.286Z,11.50
2023-05-18T18:18:48.847Z,11.50
2023-05-18T18:21:16.224Z,11.40
2023-05-18T18:23:43.311Z,11.30
2023-05-18T18:26:10.541Z,11.30
2023-05-18T18:28:37.749Z,11.20
2023-05-18T18:31:04.984Z,11.20
2023-05-18T18:33:35.307Z,11.20
2023-05-18T18:36:03.935Z,11.10
2023-05-18T18:38:33.099Z,11.10
2023-05-18T18:41:05.208Z,11.10
2023-05-18T18:43:32.757Z,11.00
2023-05-18T18:45:59.957Z,11.00
2023-05-18T18:48:27.400Z,10.90
2023-05-18T18:50:54.433Z,10.90
2023-05-18T18:53:21.423Z,10.80
2023-05-18T18:55:48.452Z,10.80
2023-05-18T18:58:15.762Z,10.80
2023-05-18T19:00:43.049Z,10.70
2023-05-18T19:03:14.605Z,10.60
2023-05-18T19:05:41.761Z,10.60
2023-05-18T19:08:08.699Z,10.60
2023-05-18T19:10:36.084Z,10.60
2023-05-18T19:13:05.925Z,10.60
2023-05-18T19:15:34.766Z,10.50
2023-05-18T19:18:02.394Z,10.50
2023-05-18T19:20:29.537Z,10.50
2023-05-18T19:22:57.013Z,10.40
2023-05-18T19:25:25.668Z,10.30
2023-05-18T19:27:53.852Z,10.30
2023-05-18T19:30:21.961Z,10.30
2023-05-18T19:32:50.282Z,10.30
2023-05-18T19:35:19.808Z,10.20
2023-05-18T19:37:47.612Z,10.20
2023-05-18T19:40:14.782Z,10.20
2023-05-18T19:42:41.842Z,10.10
2023-05-18T19:45:09.014Z,10.10
2023-05-18T19:47:36.837Z,10.00
2023-05-18T19:50:04.720Z,10.10
2023-05-18T19:52:33.630Z,10.00
2023-05-18T19:55:02.381Z,10.00
2023-05-18T19:57:29.693Z,9.90
2023-05-18T19:59:57.911Z,9.90
2023-05-18T20:02:25.235Z,9.90
2023-05-18T20:04:53.627Z,9.80
2023-05-18T20:07:20.761Z,9.90
2023-05-18T20:09:47.957Z,9.80
2023-05-18T20:12:14.933Z,9.80
2023-05-18T20:14:43.521Z,9.70
2023-05-18T20:17:10.583Z,9.80
2023-05-18T20:19:37.943Z,9.80
2023-05-18T20:22:05.630Z,9.80
2023-05-18T20:24:32.808Z,9.70
2023-05-18T20:27:01.325Z,9.70
2023-05-18T20:29:29.556Z,9.70
2023-05-18T20:31:56.638Z,9.70
2023-05-18T20:34:23.620Z,9.60
2023-05-18T20:36:50.570Z,9.60
2023-05-18T20:39:17.798Z,9.60
2023-05-18T20:41:44.712Z,9.60
2023-05-18T20:44:12.601Z,9.50
2023-05-18T20:46:42.727Z,9.50
2023-05-18T20:49:12.996Z,9.40
2023-05-18T20:51:40.002Z,9.50
2023-05-18T20:54:07.052Z,9.40
2023-05-18T20:56:36.117Z,9.50
2023-05-18T20:59:06.150Z,9.50
2023-05-18T21:01:38.852Z,9.40
2023-05-18T21:04:06.354Z,9.40
2023-05-18T21:06:34.461Z,9.40
2023-05-18T21:09:01.699Z,9.30
2023-05-18T21:11:31.010Z,9.30
2023-05-18T21:13:57.954Z,9.30
2023-05-18T21:16:25.077Z,9.30
2023-05-18T21:18:52.139Z,9.30
2023-05-18T21:21:19.074Z,9.20
2023-05-18T21:23:46.261Z,9.20
2023-05-18T21:26:13.318Z,9.20
2023-05-18T21:28:40.234Z,9.20
2023-05-18T21:31:07.217Z,9.20
2023-05-18T21:33:34.504Z,9.20
2023-05-18T21:36:04.430Z,9.10
2023-05-18T21:38:31.568Z,9.10
2023-05-18T21:40:58.708Z,9.10
2023-05-18T21:43:25.641Z,9.10
2023-05-18T21:45:52.655Z,9.10
2023-05-18T21:48:19.593Z,9.10
2023-05-18T21:50:46.493Z,9.00
2023-05-18T21:53:13.539Z,8.90
2023-05-18T21:55:40.675Z,8.90
2023-05-18T21:58:07.688Z,8.80
2023-05-18T22:00:35.636Z,8.90
2023-05-18T22:03:02.760Z,8.90
2023-05-18T22:05:31.295Z,8.90
2023-05-18T22:07:59.188Z,8.90
2023-05-18T22:10:26.220Z,8.90
2023-05-18T22:12:53.128Z,8.90
2023-05-18T22:15:22.533Z,8.80
2023-05-18T22:17:49.796Z,8.80
2023-05-18T22:20:17.307Z,8.70
2023-05-18T22:22:44.711Z,8.70
2023-05-18T22:25:12.198Z,8.60
2023-05-18T22:27:39.243Z,8.60
2023-05-18T22:30:07.478Z,8.60
2023-05-18T22:32:34.815Z,8.60
2023-05-18T22:35:02.076Z,8.60
2023-05-18T22:37:29.052Z,8.70
2023-05-18T22:39:56.000Z,8.70
2023-05-18T22:42:22.916Z,8.60
2023-05-18T22:44:49.950Z,8.60
2023-05-18T22:47:20.169Z,8.60
2023-05-18T22:49:47.816Z,8.60
2023-05-18T22:52:16.587Z,8.60
2023-05-18T22:54:43.589Z,8.60
2023-05-18T22:57:10.748Z,8.60
2023-05-18T22:59:37.925Z,8.60
2023-05-18T23:02:05.751Z,8.70
2023-05-18T23:04:33.870Z,8.70
2023-05-18T23:07:01.986Z,8.60
2023-05-18T23:09:30.604Z,8.60
2023-05-18T23:11:59.658Z,8.60
2023-05-18T23:14:28.269Z,8.60
2023-05-18T23:16:58.401Z,8.50
2023-05-18T23:19:26.761Z,8.50
2023-05-18T23:21:54.416Z,8.50
2023-05-18T23:24:21.958Z,8.40
2023-05-18T23:26:49.326Z,8.30
2023-05-18T23:29:16.460Z,8.30
2023-05-18T23:31:43.384Z,8.20
2023-05-18T23:34:10.972Z,8.20
2023-05-18T23:36:39.899Z,8.20
2023-05-18T23:39:07.407Z,8.10
2023-05-18T23:41:36.085Z,8.20
2023-05-18T23:44:03.523Z,8.10
2023-05-18T23:46:31.832Z,8.10
2023-05-18T23:48:59.878Z,8.00
2023-05-18T23:51:30.976Z,8.00
2023-05-18T23:53:58.844Z,7.90
2023-05-18T23:56:26.119Z,7.90
2023-05-18T23:58:53.303Z,7.80
